Colfax, Louisiana
Current Conditions -  °F | °C
As of 10:53 PM on Friday 21 Nov 2014 (Local Time) from KAEX Reporting Station
Overcast Overcast  
Wind Chill: 61°   Ceiling: 10000
Heat Index: 61°   Visibility: 10mi
Dew Point: 52°   Wind: 12mph
Humidity: 72%   Direction: 120°ESE
Pressure: 30.23"   Gusts: NA
Location:  31.52°N, 92.71°W
Report Text: KAEX 220453Z 12010KT 10SM SCT080 OVC100 16/11 A3023 RMK AO2 SLP240 T01610111
Loading
Personal Weather Stations






























Interactive Weather Map New forecast layout! Learn more

10-Day Weather Forecast

Advertisements
Track Severe Weather on mobile